Latest Weather Observations for Wilsons Promontory

IDV60801

Issued at 12:42 pm EST Saturday 1 October 2022 (issued every 10 minutes, with the page automatically refreshed every 10 minutes)

About weather observations | Map of weather stations | Latest weather observations for VIC | Other Formats
Station Details ID: 085096 Name: WILSONS PROMONTORY LIGHTHOUSE Lat: -39.13 Lon: 146.42 Height: 95.0 m
Data from the previous 72 hours. | See also: Recent months at Wilsons Promontory
Date/Time
EST
Temp
°C
App
Temp
°C
Dew
Point
°C
Rel
Hum
%
Delta-T
°C
Wind Press
QNH
hPa
Press
MSL
hPa
Rain since
9am
mm
Dir  Spd
km/h
Gust
km/h
Spd
kts
Gust
kts
01/12:30pm 12.5 3.6 7.8 73 2.3 E 44 48 24 26 1025.3 1025.4 0.0
01/12:00pm 12.6 4.0 8.1 74 2.2 ENE 43 48 23 26 1025.6 1025.7 0.0
01/11:30am 12.6 4.8 8.1 74 2.2 E 39 44 21 24 1026.0 1026.1 0.0
01/11:00am 12.8 4.0 7.9 72 2.4 ENE 44 50 24 27 1026.0 1026.1 0.0
01/10:30am 12.6 3.7 7.5 71 2.5 ENE 44 50 24 27 1026.2 1026.3 0.0
01/10:00am 12.6 3.6 7.1 69 2.6 ENE 44 50 24 27 1026.5 1026.5 0.0
01/09:30am 12.6 3.7 6.9 68 2.8 ENE 43 48 23 26 1027.0 1027.0 0.0
01/09:00am 12.4 4.0 7.3 71 2.5 E 41 48 22 26 1027.2 1027.2 0.0
01/08:30am 12.2 3.5 7.5 73 2.3 E 43 48 23 26 1027.0 1027.0 0.0
01/08:00am 11.4 2.9 7.1 75 2.1 E 41 48 22 26 1027.3 1027.3 0.0
01/07:30am 11.1 2.0 6.8 75 2.0 E 44 50 24 27 1027.2 1027.2 0.0
01/07:00am 11.0 2.3 7.5 79 1.7 E 43 48 23 26 1027.4 1027.4 0.0
01/06:30am 10.8 2.2 6.7 76 1.9 E 41 46 22 25 1027.5 1027.5 0.0
01/06:00am 11.0 2.4 6.4 73 2.2 E 41 46 22 25 1027.4 1027.4 0.0
01/05:30am 11.0 2.4 6.7 75 2.0 E 41 48 22 26 1027.1 1027.1 0.0
01/05:00am 10.8 2.1 5.8 71 2.3 E 41 46 22 25 1027.2 1027.2 0.0
01/04:30am 10.8 1.8 6.2 73 2.2 E 43 48 23 26 1027.1 1027.1 0.0
01/04:00am 10.9 1.8 6.6 75 2.0 E 44 50 24 27 1027.2 1027.2 0.0
01/03:30am 10.9 2.3 6.5 74 2.1 E 41 48 22 26 1027.3 1027.3 0.0
01/03:00am 10.8 1.6 6.4 74 2.1 E 44 50 24 27 1027.5 1027.5 0.0
01/02:30am 10.8 1.3 6.9 77 1.9 E 46 54 25 29 1027.7 1027.7 0.0
01/02:00am 11.1 1.2 6.8 75 2.0 E 48 57 26 31 1028.0 1028.0 0.0
01/01:30am 11.1 1.3 7.2 77 1.9 E 48 57 26 31 1028.2 1028.2 0.0
01/01:00am 11.0 2.0 7.3 78 1.8 E 44 54 24 29 1028.5 1028.6 0.0
01/12:30am 11.5 2.6 7.6 77 1.9 E 44 50 24 27 1028.8 1028.9 0.0
01/12:00am 11.6 2.5 6.9 73 2.2 ENE 44 52 24 28 1029.1 1029.2 0.0
 
Date/Time
EST
Temp
°C
App
Temp
°C
Dew
Point
°C
Rel
Hum
%
Delta-T
°C
Wind Press
QNH
hPa
Press
MSL
hPa
Rain since
9am
mm
Dir  Spd
km/h
Gust
km/h
Spd
kts
Gust
kts
30/11:30pm 11.5 1.2 6.6 72 2.3 ENE 50 57 27 31 1029.0 1029.1 0.0
30/11:00pm 11.5 1.8 7.4 76 2.0 ENE 48 56 26 30 1029.2 1029.3 0.0
30/10:30pm 11.3 1.0 8.0 80 1.6 E 52 59 28 32 1029.1 1029.2 0.0
30/10:00pm 11.2 0.9 8.2 82 1.5 ENE 52 59 28 32 1029.3 1029.4 0.0
30/09:30pm 11.1 0.8 8.3 83 1.4 ENE 52 59 28 32 1029.4 1029.5 0.0
30/09:00pm 11.2 1.3 8.1 81 1.5 ENE 50 57 27 31 1029.7 1029.8 0.0
30/08:30pm 11.2 0.9 8.2 82 1.5 E 52 57 28 31 1029.7 1029.8 0.0
30/08:00pm 11.3 1.8 8.3 82 1.5 E 48 59 26 32 1029.8 1029.9 0.0
30/07:30pm 11.2 2.4 8.1 81 1.5 E 44 56 24 30 1029.9 1030.0 0.0
30/07:00pm 11.2 1.5 7.7 79 1.7 E 48 54 26 29 1029.8 1029.9 0.0
30/06:30pm 11.3 2.0 7.6 78 1.8 E 46 57 25 31 1029.8 1029.9 0.0
30/06:00pm 11.3 1.6 7.6 78 1.8 E 48 54 26 29 1029.6 1029.7 0.0
30/05:30pm 11.3 1.4 6.8 74 2.1 ENE 48 56 26 30 1029.6 1029.7 0.0
30/05:00pm 11.3 1.8 6.8 74 2.1 ENE 46 52 25 28 1029.3 1029.4 0.0
30/04:30pm 11.5 2.3 7.8 78 1.8 ENE 46 52 25 28 1029.3 1029.4 0.0
30/04:00pm 11.8 2.9 7.7 76 2.0 ENE 44 52 24 28 1029.6 1029.7 0.0
30/03:30pm 11.8 2.7 6.7 71 2.4 E 44 50 24 27 1029.9 1030.0 0.0
30/03:00pm 11.9 2.8 6.8 71 2.4 E 44 52 24 28 1030.1 1030.2 0.0
30/02:30pm 12.0 2.8 6.5 69 2.6 E 44 50 24 27 1030.3 1030.4 0.0
30/02:00pm 12.1 2.6 6.8 70 2.5 E 46 52 25 28 1030.7 1030.8 0.0
30/01:30pm 12.2 2.7 6.5 68 2.7 E 46 52 25 28 1030.8 1030.9 0.0
30/01:00pm 12.4 3.5 6.9 69 2.6 E 43 52 23 28 1031.0 1031.1 0.0
30/12:30pm 12.4 3.5 6.7 68 2.7 E 43 50 23 27 1031.3 1031.4 0.0
30/12:00pm 12.5 4.1 7.2 70 2.6 E 41 50 22 27 1031.6 1031.7 0.0
30/11:30am 12.7 4.3 7.2 69 2.7 E 41 50 22 27 1031.8 1031.9 0.0
30/11:00am 12.4 3.3 6.9 69 2.6 E 44 52 24 28 1031.8 1031.9 0.0
30/10:30am 12.9 4.5 7.4 69 2.7 E 41 48 22 26 1031.9 1032.0 0.0
30/10:00am 12.5 4.4 7.0 69 2.6 E 39 46 21 25 1032.1 1032.2 0.0
30/09:30am 12.6 4.2 7.3 70 2.6 E 41 46 22 25 1032.2 1032.3 0.0
30/09:00am 12.6 4.1 7.1 69 2.6 E 41 48 22 26 1032.0 1032.1 0.2
30/08:30am 12.7 5.2 8.0 73 2.3 E 37 46 20 25 1031.9 1032.0 0.2
30/08:00am 12.0 2.9 6.9 71 2.4 E 44 52 24 28 1031.3 1031.4 0.2
30/07:30am 12.0 3.0 7.1 72 2.4 E 44 54 24 29 1031.1 1031.2 0.2
30/07:00am 11.3 1.8 6.6 73 2.2 E 46 57 25 31 1030.9 1031.0 0.2
30/06:30am 11.2 1.3 6.7 74 2.1 E 48 56 26 30 1030.5 1030.6 0.2
30/06:00am 11.1 1.1 6.0 71 2.4 E 48 56 26 30 1030.2 1030.3 0.2
30/05:30am 11.0 0.7 6.7 75 2.0 E 50 56 27 30 1029.8 1029.9 0.2
30/05:00am 11.0 -0.1 6.4 73 2.2 E 54 63 29 34 1029.4 1029.5 0.2
30/04:30am 11.2 0.5 6.3 72 2.3 E 52 63 28 34 1029.2 1029.3 0.2
30/04:00am 11.2 0.6 6.7 74 2.1 E 52 61 28 33 1029.0 1029.1 0.2
30/03:30am 11.2 -0.8 6.7 74 2.1 E 59 67 32 36 1028.7 1028.8 0.2
30/03:00am 11.3 -0.2 7.0 75 2.0 E 57 67 31 36 1028.8 1028.9 0.2
30/02:30am 11.3 0.3 6.8 74 2.1 E 54 65 29 35 1028.8 1028.9 0.2
30/02:00am 11.3 -0.3 6.8 74 2.1 E 57 69 31 37 1028.8 1028.9 0.2
30/01:30am 11.3 1.2 7.4 77 1.9 E 50 63 27 34 1029.1 1029.2 0.2
30/01:00am 11.4 0.4 6.9 74 2.1 E 54 63 29 34 1029.2 1029.3 0.2
30/12:30am 11.3 1.6 7.6 78 1.8 E 48 57 26 31 1029.5 1029.6 0.2
30/12:00am 11.2 0.4 7.5 78 1.8 E 54 63 29 34 1029.3 1029.4 0.2
 
Date/Time
EST
Temp
°C
App
Temp
°C
Dew
Point
°C
Rel
Hum
%
Delta-T
°C
Wind Press
QNH
hPa
Press
MSL
hPa
Rain since
9am
mm
Dir  Spd
km/h
Gust
km/h
Spd
kts
Gust
kts
29/11:30pm 11.3 1.5 8.5 83 1.4 E 50 59 27 32 1029.0 1029.1 0.2
29/11:00pm 11.1 -0.2 8.0 81 1.5 E 57 72 31 39 1029.0 1029.1 0.2
29/10:34pm 11.0 0.5 8.8 86 1.1 E 54 72 29 39 1028.8 1028.9 0.2
29/10:30pm 10.7 0.2 8.8 88 0.9 E 54 65 29 35 1029.0 1029.1 0.2
29/10:00pm 10.6 0.6 9.4 92 0.6 E 52 61 28 33 1029.2 1029.3 0.2
29/09:30pm 10.7 -0.1 9.8 94 0.5 E 57 69 31 37 1029.0 1029.1 0.2
29/09:00pm 10.5 -0.5 9.3 92 0.6 E 57 67 31 36 1028.8 1028.9 0.0
29/08:40pm 10.6 1.5 9.8 95 0.4 E 48 67 26 36 1029.0 1029.1 0.0
29/08:30pm 10.6 0.3 9.7 94 0.5 E 54 61 29 33 1028.7 1028.8 0.0
29/08:00pm 11.2 1.2 9.3 88 0.9 E 52 59 28 32 1028.7 1028.8 0.0
29/07:30pm 11.6 2.3 9.2 85 1.2 E 48 57 26 31 1028.6 1028.7 0.0
29/07:00pm 11.8 2.9 9.2 84 1.3 ESE 46 54 25 29 1028.2 1028.2 0.0
29/06:30pm 11.8 4.6 9.0 83 1.4 E 37 46 20 25 1028.0 1028.0 0.0
29/06:00pm 11.7 5.4 9.8 88 1.0 ESE 33 41 18 22 1027.8 1027.8 0.0
29/05:30pm 11.5 5.7 9.4 87 1.1 ESE 30 35 16 19 1027.7 1027.7 0.0
29/05:00pm 12.4 6.7 8.3 76 2.0 ESE 28 35 15 19 1027.6 1027.6 0.0
29/04:30pm 12.4 7.5 8.5 77 1.9 E 24 30 13 16 1027.2 1027.2 0.0
29/04:00pm 12.9 9.1 9.2 78 1.9 E 19 24 10 13 1026.9 1026.9 0.0
29/03:30pm 13.0 10.5 9.6 80 1.7 ENE 13 15 7 8 1026.8 1026.8 0.0
29/03:00pm 13.3 10.7 9.5 78 1.9 ENE 13 15 7 8 1026.6 1026.6 0.0
29/02:30pm 13.2 9.8 9.3 77 2.0 E 17 20 9 11 1026.7 1026.7 0.0
29/02:00pm 13.1 9.4 10.1 82 1.5 E 20 22 11 12 1026.7 1026.7 0.0
29/01:30pm 13.5 10.5 10.5 82 1.6 E 17 19 9 10 1026.8 1026.8 0.0
29/01:00pm 13.9 11.1 9.9 77 2.1 E 15 17 8 9 1026.7 1026.7 0.0
29/12:30pm 13.6 10.3 9.6 77 2.1 E 17 19 9 10 1026.8 1026.8 0.0
29/12:00pm 14.1 10.9 9.9 76 2.2 ENE 17 20 9 11 1026.6 1026.6 0.0
29/11:30am 13.7 10.2 10.1 79 1.9 E 19 20 10 11 1026.5 1026.5 0.0
29/11:00am 12.8 11.3 10.5 86 1.2 ESE 9 11 5 6 1026.2 1026.3 0.0
29/10:30am 13.4 12.3 10.6 83 1.5 SSE 7 7 4 4 1026.5 1026.5 0.0
29/10:00am 12.3 11.2 10.0 86 1.2 SE 6 9 3 5 1026.5 1026.5 0.0
29/09:30am 12.2 11.1 9.8 85 1.2 SE 6 7 3 4 1026.0 1026.1 0.0
29/09:00am 12.2 11.8 9.8 85 1.2 NE 2 9 1 5 1025.8 1025.9 0.0
29/08:30am 11.8 9.9 9.2 84 1.3 NE 9 15 5 8 1025.4 1025.5 0.0
29/08:00am 11.8 10.8 9.0 83 1.4 ENE 4 9 2 5 1025.1 1025.2 0.0
29/07:30am 10.8 8.7 8.4 85 1.2 W 9 9 5 5 1024.9 1025.0 0.0
29/07:00am 10.6 9.5 8.5 87 1.0 SW 4 9 2 5 1024.6 1024.7 0.0
29/06:30am 10.3 9.8 7.9 85 1.2 CALM 0 0 0 0 1024.3 1024.4 0.0
29/06:00am 10.2 9.6 7.4 83 1.3 CALM 0 0 0 0 1023.9 1024.0 0.0
29/05:30am 10.0 8.3 7.6 85 1.2 N 6 9 3 5 1023.4 1023.5 0.0
29/05:00am 10.1 9.6 7.9 86 1.1 CALM 0 0 0 0 1023.0 1023.1 0.0
29/04:30am 10.4 10.0 8.2 86 1.1 CALM 0 6 0 3 1022.8 1022.9 0.0
29/04:00am 10.5 7.0 8.6 88 0.9 W 17 20 9 11 1022.4 1022.5 0.0
29/03:30am 10.4 6.9 8.7 89 0.8 W 17 20 9 11 1022.4 1022.5 0.0
29/03:00am 10.2 6.6 8.3 88 0.9 W 17 20 9 11 1022.3 1022.4 0.0
29/02:30am 10.3 6.3 8.2 87 1.0 W 19 20 10 11 1022.2 1022.3 0.0
29/02:00am 10.4 6.3 8.0 85 1.2 W 19 24 10 13 1022.0 1022.1 0.0
29/01:30am 10.4 7.2 8.3 87 1.0 NW 15 22 8 12 1021.8 1021.9 0.0
29/01:00am 10.3 6.2 8.6 89 0.8 WNW 20 24 11 13 1022.1 1022.2 0.0
29/12:30am 10.5 6.4 8.6 88 0.9 W 20 24 11 13 1022.0 1022.1 0.0
29/12:00am 10.4 6.5 8.7 89 0.8 W 19 24 10 13 1021.7 1021.8 0.0
 
Date/Time
EST
Temp
°C
App
Temp
°C
Dew
Point
°C
Rel
Hum
%
Delta-T
°C
Wind Press
QNH
hPa
Press
MSL
hPa
Rain since
9am
mm
Dir  Spd
km/h
Gust
km/h
Spd
kts
Gust
kts
28/11:30pm 10.7 6.3 9.0 89 0.8 W 22 28 12 15 1021.7 1021.8 0.0
28/11:00pm 10.9 6.9 9.2 89 0.8 W 20 26 11 14 1021.6 1021.7 0.0
28/10:30pm 11.0 7.1 9.3 89 0.9 W 20 24 11 13 1021.5 1021.6 0.0
28/10:00pm 11.3 6.7 9.6 89 0.9 WSW 24 28 13 15 1021.5 1021.6 0.0
28/09:30pm 11.5 7.3 9.9 90 0.8 WSW 22 30 12 16 1021.4 1021.5 0.0
28/09:00pm 11.6 7.4 9.9 89 0.9 WSW 22 30 12 16 1021.3 1021.4 0.0
28/08:30pm 11.4 6.8 9.7 89 0.9 W 24 30 13 16 1021.2 1021.3 0.0
28/08:00pm 11.4 7.6 9.7 89 0.9 W 20 28 11 15 1021.0 1021.1 0.0
28/07:30pm 11.4 6.7 9.3 87 1.1 W 24 28 13 15 1020.5 1020.6 0.0
28/07:00pm 11.5 6.8 9.2 86 1.2 W 24 28 13 15 1020.1 1020.2 0.0
28/06:30pm 11.7 7.0 9.4 86 1.2 W 24 32 13 17 1019.8 1019.9 0.0
28/06:00pm 11.9 6.5 9.6 86 1.2 W 28 32 15 17 1019.3 1019.3 0.0
28/05:30pm 12.1 8.0 10.0 87 1.1 WSW 22 28 12 15 1019.1 1019.1 0.0
28/05:00pm 12.2 7.7 9.9 86 1.2 WSW 24 30 13 16 1019.0 1019.0 0.0
28/04:30pm 12.7 8.1 9.7 82 1.5 W 24 30 13 16 1018.8 1018.8 0.0
28/04:00pm 12.8 7.5 9.8 82 1.5 WSW 28 33 15 18 1018.6 1018.6 0.0
28/03:30pm 12.6 7.7 9.8 83 1.4 WSW 26 32 14 17 1018.5 1018.5 0.0
28/03:00pm 12.9 7.6 9.7 81 1.6 WSW 28 32 15 17 1018.3 1018.3 0.0
28/02:30pm 12.9 8.5 10.3 84 1.4 WSW 24 32 13 17 1018.3 1018.3 0.0
28/02:00pm 12.9 8.5 10.4 85 1.3 WSW 24 28 13 15 1018.3 1018.3 0.0
28/01:30pm 13.2 8.8 10.4 83 1.5 WSW 24 26 13 14 1018.2 1018.2 0.0
28/01:00pm 13.4 9.9 10.8 84 1.4 SW 20 22 11 12 1018.5 1018.5 0.0

Other formats

Comma delimited format used in spreadsheet applications
http://www.bom.gov.au/fwo/IDV60801/IDV60801.94893.axf

JavaScript Object Notation format (JSON) in row-major order
http://www.bom.gov.au/fwo/IDV60801/IDV60801.94893.json

Data quality

Most of these data are generated automatically and are frequently updated. Quality checks on data are not normally performed. It is possible for incorrect values to appear. Refer to information at About Latest Weather Observations and please check the disclaimer before using these data.